createdAt,value
2024-02-08T00:07:53.499Z,4.30
2024-02-08T00:17:56.703Z,4.20
2024-02-08T00:27:58.869Z,4.20
2024-02-08T00:38:01.839Z,4.20
2024-02-08T00:48:05.656Z,4.30
2024-02-08T00:58:07.792Z,4.30
2024-02-08T01:08:09.924Z,4.40
2024-02-08T01:18:12.091Z,4.50
2024-02-08T01:28:16.938Z,4.50
2024-02-08T01:38:19.548Z,4.50
2024-02-08T01:48:21.616Z,4.50
2024-02-08T01:58:26.064Z,4.50
2024-02-08T02:08:34.658Z,4.60
2024-02-08T02:18:37.721Z,4.70
2024-02-08T02:28:41.654Z,4.70
2024-02-08T02:38:46.199Z,4.70
2024-02-08T02:48:48.349Z,4.80
2024-02-08T02:58:50.555Z,4.80
2024-02-08T03:08:52.650Z,4.80
2024-02-08T03:18:54.745Z,4.80
2024-02-08T03:28:57.817Z,4.70
2024-02-08T03:39:04.971Z,4.70
2024-02-08T03:49:10.096Z,4.70
2024-02-08T03:59:13.610Z,4.70
2024-02-08T04:09:34.858Z,4.70
2024-02-08T04:19:56.955Z,4.70
2024-02-08T04:30:17.331Z,4.70
2024-02-08T04:40:40.777Z,4.80
2024-02-08T04:51:01.716Z,4.80
2024-02-08T05:01:04.544Z,4.80
2024-02-08T05:11:10.976Z,4.80
2024-02-08T05:21:15.690Z,4.80
2024-02-08T05:31:17.788Z,4.60
2024-02-08T05:41:23.262Z,4.50
2024-02-08T05:51:27.436Z,4.50
2024-02-08T06:01:33.370Z,4.40
2024-02-08T06:11:40.423Z,4.50
2024-02-08T06:21:43.187Z,4.50
2024-02-08T06:31:51.819Z,4.40
2024-02-08T06:41:54.733Z,4.40
2024-02-08T06:52:15.230Z,4.50
2024-02-08T07:02:35.761Z,4.50
2024-02-08T07:12:56.300Z,4.60
2024-02-08T07:23:16.771Z,4.60
2024-02-08T07:33:37.365Z,4.70
2024-02-08T07:43:44.874Z,4.80
2024-02-08T07:53:51.960Z,4.80
2024-02-08T08:03:57.999Z,4.80
2024-02-08T08:14:00.139Z,4.90
2024-02-08T08:24:03.395Z,4.90
2024-02-08T08:34:23.876Z,4.90
2024-02-08T08:44:31.499Z,4.90
2024-02-08T08:54:37.327Z,5.00
2024-02-08T09:04:39.557Z,5.00
2024-02-08T09:14:54.240Z,5.10
2024-02-08T09:24:57.439Z,5.20
2024-02-08T09:35:00.030Z,5.20
2024-02-08T09:45:24.790Z,5.40
2024-02-08T09:55:33.420Z,5.60
2024-02-08T10:05:58.732Z,5.80
2024-02-08T10:16:10.693Z,5.90
2024-02-08T10:26:21.778Z,6.00
2024-02-08T10:36:32.113Z,6.00
2024-02-08T10:46:35.304Z,6.10
2024-02-08T10:56:45.930Z,6.30
2024-02-08T11:06:59.037Z,6.40
2024-02-08T11:17:06.553Z,6.50
2024-02-08T11:27:14.365Z,6.60
2024-02-08T11:37:19.552Z,6.80
2024-02-08T11:47:24.876Z,6.90
2024-02-08T11:57:37.727Z,7.10
2024-02-08T12:07:46.597Z,7.20
2024-02-08T12:17:54.075Z,7.30
2024-02-08T12:28:06.426Z,7.30
2024-02-08T12:38:10.232Z,7.40
2024-02-08T12:48:17.953Z,7.50
2024-02-08T12:58:20.569Z,7.60
2024-02-08T13:08:24.673Z,7.80
2024-02-08T13:18:31.156Z,8.00
2024-02-08T13:28:34.054Z,8.20
2024-02-08T13:38:40.118Z,8.30
2024-02-08T13:48:42.911Z,8.50
2024-02-08T13:58:45.075Z,8.60
2024-02-08T14:08:51.396Z,8.90
2024-02-08T14:18:55.873Z,9.20
2024-02-08T14:28:58.449Z,9.50
2024-02-08T14:39:01.257Z,9.80
2024-02-08T14:49:18.794Z,10.00
2024-02-08T14:59:21.320Z,10.20
2024-02-08T15:09:35.218Z,10.30
2024-02-08T15:19:46.591Z,10.40
2024-02-08T15:29:53.976Z,10.50
2024-02-08T15:40:11.515Z,10.50
2024-02-08T15:50:16.716Z,10.60
2024-02-08T16:00:37.588Z,10.70
2024-02-08T16:10:39.708Z,10.80
2024-02-08T16:20:50.711Z,10.90
2024-02-08T16:30:59.573Z,11.00
2024-02-08T16:41:06.332Z,11.00
2024-02-08T16:51:11.524Z,11.10
2024-02-08T17:01:34.253Z,11.20
2024-02-08T17:11:36.689Z,11.30
2024-02-08T17:21:50.620Z,11.40
2024-02-08T17:31:52.971Z,11.40
2024-02-08T17:41:58.219Z,11.50
2024-02-08T17:52:00.848Z,11.50
2024-02-08T18:02:03.552Z,11.60
2024-02-08T18:12:13.631Z,11.60
2024-02-08T18:22:29.846Z,11.70
2024-02-08T18:32:35.896Z,11.80
2024-02-08T18:42:39.679Z,11.80
2024-02-08T18:52:43.095Z,11.80
2024-02-08T19:02:45.580Z,11.80
2024-02-08T19:12:52.722Z,12.00
2024-02-08T19:22:58.193Z,12.00
2024-02-08T19:33:00.416Z,11.90
2024-02-08T19:43:04.418Z,11.90
2024-02-08T19:53:07.484Z,11.90
2024-02-08T20:03:17.400Z,11.90
2024-02-08T20:13:24.479Z,11.90
2024-02-08T20:23:33.558Z,11.90
2024-02-08T20:33:38.480Z,11.90
2024-02-08T20:43:49.313Z,11.90
2024-02-08T20:53:51.475Z,11.90
2024-02-08T21:03:53.677Z,11.90
2024-02-08T21:13:56.069Z,11.90
2024-02-08T21:23:58.216Z,12.00
2024-02-08T21:34:00.574Z,11.90
2024-02-08T21:44:02.598Z,11.90
2024-02-08T21:54:06.162Z,11.90
2024-02-08T22:04:09.330Z,11.90
2024-02-08T22:14:11.555Z,11.80
2024-02-08T22:24:15.150Z,11.80
2024-02-08T22:34:19.880Z,11.70
2024-02-08T22:44:22.899Z,11.70
2024-02-08T22:54:25.437Z,11.70
2024-02-08T23:04:31.703Z,11.70
2024-02-08T23:14:34.201Z,11.70
2024-02-08T23:24:41.891Z,11.70
2024-02-08T23:34:44.351Z,11.70
2024-02-08T23:44:46.471Z,11.70
2024-02-08T23:54:49.170Z,11.60
